メインページ
METAR-TAF:

METAR-TAF

空港 :

ミンスク第2空港

ミンスク, ベラルーシ

緯度: 53-56N, 経度: 027-38E, 海抜: 234m

現時点の気象観測

当レポートは38分前の01:00(UTC)に作成
無風
気温 3°C
湿度 93%
気圧 1027 hPa
視程: 9000m

METAR: UMMS 160100Z 00000MPS 9000 NSC 03/02 Q1027 R31/D NOSIG

時間: 04:38 (01:38 UTC)

予報

当レポートは2時間34分前の23:04(UTC)に作成
予報は16日の 00時(UTC)から 16日の 24時(UTC)まで有効
の風 10kt
視程: 3000m
高度300ftの雲は散在している
16日の 00時(UTC)から 16日の 07時(UTC)まで一時的に
変向風 4kt
視程: 0300m
高度200ftの
16日の 07時(UTC)から 16日の 08時(UTC)まで徐々に
南/南西の風 12kt
視程10km以上
高度3000ftの雲は散在している
16日の 17時(UTC)から 16日の 24時(UTC)まで一時的に
視程: 1200m
高度300ftの千切れ雲あり
散在霧, 靄

TAF: UMMS 152304Z 1600/1624 17005MPS 3000 BR SCT003 TEMPO 1600/1607 VRB02MPS 0300 FG VV002 BECMG 1607/1608 20006MPS 9999 NSW SCT030 TEMPO 1617/1624 1200 BCFG BR BKN003

4,000以上の空港の気象観測と天気予報(METAR報とTAF報)

利用可能な観測所は地図上に黄色い丸と赤い丸で示す。

丸の上にカーソルを重ねると観測所名を参照できる。

次にクリックすると気象観測と天気予報を参照できる。

マップの切り替え:黒色「×」印の緑ボタンをクリックして拡大、「-」印の緑ボタンをクリックして縮小、緑色の三角印をクリックして隣りの地図に切り替え


METAR-TAF: